Beaver County Airport
KBVI : rendu visible

Aérodrome :











RETROUVEZ-NOUS SUR...

 
LOGIN :

S'inscrire | Disclaimer

   EN    FR    IT 

 









Légende :    VFR   VFR Marginal   IFR   IFR Intensif   IFR Très Intensif
Visi : 
Plafond : 
>= 8 km
>= 3000ft
5 à 8 km
1000 à 3000 ft
1500m à 5 km
500 à 1000 ft
800 à 1500m
200 à 500 ft
< 800m
< 200 ft
Symboles :   Orages  Brouillard  Fortes neiges  Fortes précipitations  Vent > 20 kt






- Altitude de l'aérodrome : 1253 ft


KBVI - Beaver County

DERNIER METAR :
  • 080936Z AUTO 23004KT 10SM CLR 13/11 A2959 RMK AO2 T01250106

METARs EXPIRÉS :
  • 080916Z AUTO 25003KT 10SM CLR 13/11 A2959 RMK AO2 T01250108
  • 080855Z AUTO 23004KT 10SM CLR 12/11 A2959 RMK AO2 T01230111
  • 080835Z AUTO 21006KT 10SM SCT034 SCT075 12/11 A2959 RMK AO2 LTG DSNT SW T01210110
  • 080815Z AUTO 19004KT 10SM SCT034 SCT075 BKN100 12/11 A2959 RMK AO2 LTG DSNT SW T01210110
  • 080756Z AUTO 19003KT 10SM -RA SCT080 BKN100 OVC120 12/11 A2961 RMK AO2 T01230108
  • 080736Z AUTO 33003KT 10SM SCT120 13/11 A2962 RMK AO2 T01260110
  • 080716Z AUTO 32005G14KT 10SM SCT050 SCT070 BKN080 13/11 A2963 RMK AO2 LTG DSNT W T01300110
  • 080655Z AUTO 23011G16KT 4SM +RA SCT050 OVC070 13/11 A2962 RMK AO2 LTG DSNT SE AND W T01300110
  • 080635Z AUTO 26008KT 7SM RA SCT040 SCT048 OVC070 13/11 A2968 RMK AO2 LTG DSNT SW T01280108

TAF KBVI
Valide du 08 à 10h jusqu'au 09 à 06h UTC


080934Z 0810/0906 25003KT P6SM SKC
FM081400 31005KT P6SM BKN015
FM081800 30012KT P6SM BKN035



MET'MAP, la Météo Aéronautique d'un coup d'oeil ! - Copyright ORBIFLY Décembre 2007 - Disclaimer

ORBIFLY MET'MAP TEAM :

Programmation & Développement : Alexandra Zaïnal
Sur une idée originale de : Baudouin d'Aumeries
Assistance à la programmation : Marc-Olivier Méhu
Soutien technique & logistique : Manuel Goepfert

Contact : metmap@orbifly.com




SOURCES & CREDITS :

   NOAA       Earth
Advisory